createdAt,value
2023-04-18T00:01:10.217Z,2.45
2023-04-18T00:03:33.415Z,2.30
2023-04-18T00:05:56.483Z,2.75
2023-04-18T00:08:19.241Z,2.33
2023-04-18T00:10:42.264Z,1.92
2023-04-18T00:13:04.937Z,2.70
2023-04-18T00:15:29.287Z,2.42
2023-04-18T00:17:52.493Z,2.83
2023-04-18T00:20:15.318Z,2.37
2023-04-18T00:22:42.758Z,2.50
2023-04-18T00:25:06.029Z,2.40
2023-04-18T00:27:28.681Z,2.38
2023-04-18T00:29:52.028Z,2.30
2023-04-18T00:32:15.091Z,2.30
2023-04-18T00:34:38.169Z,1.98
2023-04-18T00:37:00.761Z,2.20
2023-04-18T00:39:23.529Z,2.28
2023-04-18T00:41:46.218Z,2.42
2023-04-18T00:44:08.842Z,2.40
2023-04-18T00:46:32.193Z,2.60
2023-04-18T00:48:55.049Z,2.13
2023-04-18T00:51:17.879Z,2.28
2023-04-18T00:53:42.161Z,2.35
2023-04-18T00:56:06.183Z,2.60
2023-04-18T00:58:28.783Z,2.47
2023-04-18T01:00:52.227Z,2.20
2023-04-18T01:03:15.531Z,2.35
2023-04-18T01:05:38.376Z,2.90
2023-04-18T01:08:01.440Z,2.70
2023-04-18T01:10:24.268Z,2.35
2023-04-18T01:12:46.876Z,2.65
2023-04-18T01:15:10.771Z,2.25
2023-04-18T01:17:36.667Z,2.70
2023-04-18T01:20:01.855Z,2.30
2023-04-18T01:22:24.645Z,2.42
2023-04-18T01:24:47.252Z,2.40
2023-04-18T01:27:13.614Z,2.53
2023-04-18T01:29:37.863Z,2.60
2023-04-18T01:32:02.737Z,2.40
2023-04-18T01:34:25.306Z,2.65
2023-04-18T01:36:48.451Z,2.72
2023-04-18T01:39:11.211Z,2.97
2023-04-18T01:41:34.257Z,3.20
2023-04-18T01:43:56.866Z,2.70
2023-04-18T01:46:19.743Z,2.83
2023-04-18T01:48:43.262Z,3.10
2023-04-18T01:51:06.545Z,2.50
2023-04-18T01:53:29.186Z,2.53
2023-04-18T01:55:51.751Z,2.80
2023-04-18T01:58:16.271Z,2.90
2023-04-18T02:00:39.329Z,2.90
2023-04-18T02:03:02.113Z,2.85
2023-04-18T02:05:27.120Z,2.90
2023-04-18T02:07:50.460Z,2.90
2023-04-18T02:10:13.326Z,2.90
2023-04-18T02:12:36.195Z,3.05
2023-04-18T02:14:58.772Z,2.78
2023-04-18T02:17:23.518Z,2.90
2023-04-18T02:19:46.720Z,2.83
2023-04-18T02:22:09.400Z,3.40
2023-04-18T02:24:33.081Z,2.60
2023-04-18T02:26:55.793Z,2.83
2023-04-18T02:29:18.505Z,3.03
2023-04-18T02:31:41.931Z,3.00
2023-04-18T02:34:04.603Z,3.00
2023-04-18T02:36:28.242Z,3.08
2023-04-18T02:38:51.088Z,3.10
2023-04-18T02:41:19.511Z,2.97
2023-04-18T02:43:43.267Z,3.10
2023-04-18T02:46:06.175Z,2.97
2023-04-18T02:48:29.190Z,3.22
2023-04-18T02:50:52.109Z,2.97
2023-04-18T02:53:14.987Z,3.67
2023-04-18T02:55:49.908Z,3.20
2023-04-18T02:58:13.313Z,3.00
2023-04-18T03:00:56.911Z,3.58
2023-04-18T03:03:38.560Z,3.08
2023-04-18T03:06:18.405Z,3.28
2023-04-18T03:08:41.899Z,3.60
2023-04-18T03:11:05.285Z,3.40
2023-04-18T03:13:28.550Z,3.60
2023-04-18T03:15:52.120Z,3.25
2023-04-18T03:18:14.838Z,3.40
2023-04-18T03:20:39.148Z,3.60
2023-04-18T03:23:03.034Z,3.67
2023-04-18T03:25:26.583Z,3.80
2023-04-18T03:27:49.549Z,3.58
2023-04-18T03:30:14.144Z,3.53
2023-04-18T03:32:39.235Z,2.80
2023-04-18T03:35:02.561Z,3.47
2023-04-18T03:37:25.448Z,3.70
2023-04-18T03:39:50.755Z,3.40
2023-04-18T03:42:13.802Z,3.70
2023-04-18T03:44:37.694Z,3.80
2023-04-18T03:47:00.453Z,3.42
2023-04-18T03:49:24.886Z,3.70
2023-04-18T03:51:48.080Z,3.65
2023-04-18T03:54:11.005Z,3.88
2023-04-18T03:56:33.707Z,3.70
2023-04-18T03:58:56.519Z,3.83
2023-04-18T04:01:19.671Z,3.85
2023-04-18T04:03:42.517Z,4.43
2023-04-18T04:06:06.272Z,4.18
2023-04-18T04:08:29.273Z,4.23
2023-04-18T04:10:52.622Z,3.95
2023-04-18T04:13:15.733Z,3.72
2023-04-18T04:15:39.049Z,3.90
2023-04-18T04:18:05.728Z,4.47
2023-04-18T04:20:30.896Z,4.27
2023-04-18T04:23:01.303Z,4.43
2023-04-18T04:25:28.617Z,4.95
2023-04-18T04:27:54.530Z,4.68
2023-04-18T04:30:18.957Z,4.57
2023-04-18T04:32:42.130Z,4.00
2023-04-18T04:35:05.463Z,4.50
2023-04-18T04:37:28.515Z,4.80
2023-04-18T04:40:11.656Z,4.03
2023-04-18T04:42:42.328Z,4.68
2023-04-18T04:45:12.494Z,4.60
2023-04-18T04:47:35.655Z,5.13
2023-04-18T04:49:58.449Z,5.40
2023-04-18T04:52:21.188Z,5.40
2023-04-18T04:54:45.920Z,7.13
2023-04-18T04:57:11.015Z,8.10
2023-04-18T04:59:33.739Z,10.38
2023-04-18T05:01:57.523Z,8.85
2023-04-18T05:04:20.497Z,7.28
2023-04-18T05:06:43.687Z,7.20
2023-04-18T05:09:06.663Z,5.10
2023-04-18T05:11:29.323Z,6.07
2023-04-18T05:13:52.121Z,5.60
2023-04-18T05:16:15.025Z,4.85
2023-04-18T05:18:39.394Z,4.68
2023-04-18T05:21:02.499Z,5.30
2023-04-18T05:23:25.441Z,4.25
2023-04-18T05:25:48.174Z,4.30
2023-04-18T05:28:11.430Z,3.85
2023-04-18T05:30:34.517Z,4.00
2023-04-18T05:32:57.493Z,4.00
2023-04-18T05:35:20.214Z,3.95
2023-04-18T05:37:43.053Z,4.03
2023-04-18T05:40:12.240Z,4.43
2023-04-18T05:42:36.102Z,4.30
2023-04-18T05:44:59.388Z,4.00
2023-04-18T05:47:24.243Z,3.95
2023-04-18T05:49:47.651Z,4.20
2023-04-18T05:52:11.496Z,4.40
2023-04-18T05:54:34.132Z,4.13
2023-04-18T05:56:57.372Z,4.07
2023-04-18T05:59:21.746Z,4.55
2023-04-18T06:01:44.475Z,4.25
2023-04-18T06:04:08.679Z,3.72
2023-04-18T06:06:31.650Z,3.85
2023-04-18T06:08:54.855Z,4.13
2023-04-18T06:11:20.160Z,4.15
2023-04-18T06:13:43.176Z,3.85
2023-04-18T06:16:06.272Z,3.50
2023-04-18T06:18:30.592Z,4.15
2023-04-18T06:20:55.132Z,6.13
2023-04-18T06:23:17.691Z,5.60
2023-04-18T06:25:43.855Z,5.00
2023-04-18T06:28:08.160Z,4.15
2023-04-18T06:30:31.078Z,4.38
2023-04-18T06:32:53.831Z,4.23
2023-04-18T06:35:16.882Z,4.78
2023-04-18T06:37:44.089Z,5.65
2023-04-18T06:40:07.652Z,6.60
2023-04-18T06:42:30.302Z,5.25
2023-04-18T06:44:53.867Z,5.47
2023-04-18T06:47:16.738Z,4.82
2023-04-18T06:49:39.750Z,4.53
2023-04-18T06:52:02.851Z,5.03
2023-04-18T06:54:27.469Z,4.88
2023-04-18T06:56:50.598Z,4.93
2023-04-18T06:59:13.587Z,4.75
2023-04-18T07:01:42.464Z,4.60
2023-04-18T07:04:05.678Z,4.50
2023-04-18T07:06:28.600Z,4.65
2023-04-18T07:08:53.946Z,4.77
2023-04-18T07:11:18.669Z,5.22
2023-04-18T07:13:41.459Z,7.10
2023-04-18T07:16:04.690Z,4.40
2023-04-18T07:18:37.336Z,4.00
2023-04-18T07:21:01.956Z,3.23
2023-04-18T07:23:24.968Z,3.30
2023-04-18T07:25:47.725Z,3.50
2023-04-18T07:28:10.360Z,3.50
2023-04-18T07:30:33.233Z,3.45
2023-04-18T07:32:56.027Z,3.17
2023-04-18T07:35:18.886Z,3.33
2023-04-18T07:37:41.566Z,3.17
2023-04-18T07:40:05.334Z,3.03
2023-04-18T07:42:28.177Z,2.78
2023-04-18T07:44:51.396Z,2.80
2023-04-18T07:47:15.059Z,2.88
2023-04-18T07:49:38.251Z,2.58
2023-04-18T07:52:01.264Z,2.63
2023-04-18T07:54:24.040Z,2.80
2023-04-18T07:56:48.200Z,2.93
2023-04-18T07:59:11.728Z,2.67
2023-04-18T08:01:34.480Z,2.72
2023-04-18T08:04:04.485Z,2.58
2023-04-18T08:06:28.473Z,2.70
2023-04-18T08:08:51.246Z,2.10
2023-04-18T08:11:14.333Z,2.20
2023-04-18T08:13:37.070Z,1.73
2023-04-18T08:16:00.268Z,1.67
2023-04-18T08:18:23.456Z,1.70
2023-04-18T08:20:47.381Z,1.30
2023-04-18T08:23:12.818Z,1.55
2023-04-18T08:25:36.447Z,1.55
2023-04-18T08:28:00.723Z,1.42
2023-04-18T08:30:24.849Z,1.77
2023-04-18T08:32:47.605Z,1.43
2023-04-18T08:35:10.196Z,1.42
2023-04-18T08:37:38.352Z,1.58
2023-04-18T08:40:06.342Z,1.67
2023-04-18T08:42:29.964Z,1.42
2023-04-18T08:44:52.696Z,1.40
2023-04-18T08:47:16.478Z,1.38
2023-04-18T08:49:40.290Z,1.67
2023-04-18T08:52:10.440Z,1.55
2023-04-18T08:54:37.444Z,1.95
2023-04-18T08:57:07.654Z,1.70
2023-04-18T08:59:35.607Z,1.40
2023-04-18T09:01:59.265Z,1.67
2023-04-18T09:04:35.727Z,1.70
2023-04-18T09:06:58.497Z,1.80
2023-04-18T09:09:27.442Z,1.30
2023-04-18T09:11:50.046Z,1.75
2023-04-18T09:14:24.485Z,1.65
2023-04-18T09:16:47.297Z,1.55
2023-04-18T09:19:18.568Z,1.40
2023-04-18T09:21:46.369Z,1.60
2023-04-18T09:24:24.935Z,1.50
2023-04-18T09:26:49.874Z,1.50
2023-04-18T09:29:13.664Z,1.30
2023-04-18T09:32:00.148Z,1.70
2023-04-18T09:34:27.635Z,1.70
2023-04-18T09:37:13.946Z,1.90
2023-04-18T09:39:42.825Z,1.70
2023-04-18T09:42:06.143Z,1.50
2023-04-18T09:44:29.502Z,1.80
2023-04-18T09:46:52.228Z,1.60
2023-04-18T09:49:17.878Z,1.60
2023-04-18T09:51:43.299Z,1.55
2023-04-18T09:54:06.462Z,1.58
2023-04-18T09:56:32.063Z,1.65
2023-04-18T09:59:07.314Z,1.37
2023-04-18T10:01:34.186Z,1.50
2023-04-18T10:04:01.470Z,1.50
2023-04-18T10:06:34.130Z,1.45
2023-04-18T10:11:39.148Z,1.40
2023-04-18T10:14:08.560Z,1.10
2023-04-18T10:16:34.839Z,1.38
2023-04-18T10:19:23.131Z,1.30
2023-04-18T10:22:04.017Z,1.40
2023-04-18T10:24:46.011Z,1.23
2023-04-18T10:27:08.699Z,1.40
2023-04-18T10:29:51.139Z,1.35
2023-04-18T10:32:14.107Z,1.30
2023-04-18T10:34:37.864Z,1.23
2023-04-18T10:37:04.929Z,1.10
2023-04-18T10:39:30.090Z,1.20
2023-04-18T10:41:53.913Z,3.15
2023-04-18T10:44:18.553Z,1.50
2023-04-18T10:47:18.972Z,1.92
2023-04-18T10:49:55.006Z,1.20
2023-04-18T10:52:17.890Z,1.52
2023-04-18T10:55:30.671Z,1.67
2023-04-18T10:57:59.257Z,1.20
2023-04-18T11:00:23.998Z,1.30
2023-04-18T11:02:58.233Z,1.20
2023-04-18T11:05:35.637Z,1.25
2023-04-18T11:08:00.337Z,0.98
2023-04-18T11:10:27.670Z,1.25
2023-04-18T11:12:51.346Z,1.23
2023-04-18T11:15:21.650Z,1.00
2023-04-18T11:17:45.129Z,1.45
2023-04-18T11:20:13.079Z,1.20
2023-04-18T11:22:58.813Z,1.40
2023-04-18T11:25:27.325Z,1.40
2023-04-18T11:27:57.162Z,1.00
2023-04-18T11:30:20.175Z,1.40
2023-04-18T11:32:42.977Z,1.23
2023-04-18T11:35:08.806Z,1.15
2023-04-18T11:37:32.543Z,1.30
2023-04-18T11:39:55.822Z,1.30
2023-04-18T11:42:18.564Z,1.27
2023-04-18T11:44:46.100Z,1.35
2023-04-18T11:47:29.148Z,1.20
2023-04-18T11:49:57.486Z,1.48
2023-04-18T11:52:20.763Z,1.30
2023-04-18T11:54:44.779Z,1.55
2023-04-18T11:57:20.170Z,1.48
2023-04-18T11:59:51.308Z,1.40
2023-04-18T12:02:16.762Z,1.23
2023-04-18T12:04:58.366Z,1.50
2023-04-18T12:07:37.446Z,1.33
2023-04-18T12:10:00.154Z,1.35
2023-04-18T12:12:22.782Z,1.10
2023-04-18T12:14:46.086Z,1.20
2023-04-18T12:17:08.713Z,1.20
2023-04-18T12:19:32.724Z,1.23
2023-04-18T12:22:06.809Z,1.35
2023-04-18T12:24:30.438Z,1.10
2023-04-18T12:26:53.241Z,1.30
2023-04-18T12:29:16.097Z,1.13
2023-04-18T12:31:38.774Z,1.20
2023-04-18T12:34:01.496Z,1.38
2023-04-18T12:36:24.081Z,1.48
2023-04-18T12:38:48.683Z,1.38
2023-04-18T12:41:11.446Z,1.50
2023-04-18T12:43:34.181Z,1.20
2023-04-18T12:45:57.024Z,1.10
2023-04-18T12:48:19.765Z,1.10
2023-04-18T12:50:42.711Z,1.00
2023-04-18T12:53:06.250Z,1.13
2023-04-18T12:55:29.608Z,1.05
2023-04-18T12:57:54.559Z,1.40
2023-04-18T13:00:17.378Z,1.20
2023-04-18T13:02:42.631Z,1.20
2023-04-18T13:05:07.092Z,1.53
2023-04-18T13:07:29.957Z,1.30
2023-04-18T13:09:52.745Z,1.25
2023-04-18T13:12:15.616Z,1.40
2023-04-18T13:14:39.143Z,1.10
2023-04-18T13:17:01.887Z,1.30
2023-04-18T13:19:24.569Z,1.20
2023-04-18T13:21:49.118Z,1.50
2023-04-18T13:24:12.368Z,1.15
2023-04-18T13:26:36.091Z,1.38
2023-04-18T13:28:58.678Z,1.20
2023-04-18T13:31:21.390Z,1.30
2023-04-18T13:33:44.009Z,1.40
2023-04-18T13:36:06.874Z,1.38
2023-04-18T13:38:29.890Z,1.45
2023-04-18T13:41:04.471Z,1.60
2023-04-18T13:43:33.891Z,1.40
2023-04-18T13:45:56.492Z,1.48
2023-04-18T13:48:19.524Z,1.45
2023-04-18T13:50:42.797Z,1.55
2023-04-18T13:53:05.737Z,1.50
2023-04-18T13:55:28.964Z,1.52
2023-04-18T13:57:52.204Z,1.60
2023-04-18T14:00:15.339Z,1.33
2023-04-18T14:02:38.433Z,1.60
2023-04-18T14:05:01.469Z,1.77
2023-04-18T14:07:24.392Z,1.55
2023-04-18T14:09:48.329Z,1.60
2023-04-18T14:12:11.045Z,1.70
2023-04-18T14:14:34.134Z,1.90
2023-04-18T14:16:56.920Z,1.80
2023-04-18T14:19:19.626Z,1.50
2023-04-18T14:21:42.170Z,1.70
2023-04-18T14:24:06.007Z,1.55
2023-04-18T14:26:28.758Z,1.70
2023-04-18T14:28:51.484Z,1.60
2023-04-18T14:31:14.856Z,1.55
2023-04-18T14:33:38.480Z,1.73
2023-04-18T14:36:02.567Z,1.45
2023-04-18T14:38:25.232Z,1.77
2023-04-18T14:40:48.305Z,1.50
2023-04-18T14:43:12.695Z,1.75
2023-04-18T14:45:35.394Z,1.75
2023-04-18T14:47:59.239Z,1.70
2023-04-18T14:50:22.007Z,1.70
2023-04-18T14:52:45.751Z,1.87
2023-04-18T14:55:09.655Z,1.35
2023-04-18T14:57:33.663Z,1.48
2023-04-18T14:59:56.655Z,1.77
2023-04-18T15:02:19.389Z,1.80
2023-04-18T15:04:42.516Z,1.77
2023-04-18T15:07:05.399Z,1.50
2023-04-18T15:09:28.361Z,1.73
2023-04-18T15:11:51.776Z,1.70
2023-04-18T15:14:14.682Z,1.73
2023-04-18T15:16:39.948Z,1.90
2023-04-18T15:19:02.568Z,1.60
2023-04-18T15:21:25.160Z,1.80
2023-04-18T15:23:48.059Z,1.80
2023-04-18T15:26:10.689Z,1.40
2023-04-18T15:28:33.300Z,1.60
2023-04-18T15:30:55.895Z,1.92
2023-04-18T15:33:20.492Z,1.75
2023-04-18T15:35:43.026Z,1.70
2023-04-18T15:38:06.679Z,1.90
2023-04-18T15:40:29.337Z,2.00
2023-04-18T15:42:54.138Z,2.00
2023-04-18T15:45:16.915Z,2.00
2023-04-18T15:47:40.696Z,1.90
2023-04-18T15:50:03.835Z,1.85
2023-04-18T15:52:26.838Z,1.90
2023-04-18T15:54:51.943Z,1.88
2023-04-18T15:57:14.823Z,1.90
2023-04-18T15:59:38.845Z,1.80
2023-04-18T16:02:02.213Z,1.92
2023-04-18T16:04:24.890Z,1.83
2023-04-18T16:06:48.155Z,2.00
2023-04-18T16:09:10.784Z,1.90
2023-04-18T16:11:33.481Z,1.80
2023-04-18T16:13:56.362Z,1.95
2023-04-18T16:16:19.030Z,2.03
2023-04-18T16:18:41.775Z,1.90
2023-04-18T16:21:04.781Z,1.80
2023-04-18T16:23:27.419Z,1.67
2023-04-18T16:25:51.135Z,1.50
2023-04-18T16:28:14.262Z,2.03
2023-04-18T16:30:37.567Z,2.08
2023-04-18T16:33:00.469Z,2.30
2023-04-18T16:35:23.275Z,2.30
2023-04-18T16:37:45.919Z,2.30
2023-04-18T16:40:12.328Z,2.17
2023-04-18T16:42:35.065Z,2.30
2023-04-18T16:44:57.736Z,2.20
2023-04-18T16:47:20.424Z,1.90
2023-04-18T16:49:44.935Z,2.42
2023-04-18T16:52:07.621Z,2.10
2023-04-18T16:54:31.074Z,1.83
2023-04-18T16:56:53.697Z,2.10
2023-04-18T16:59:16.859Z,2.15
2023-04-18T17:01:39.771Z,2.30
2023-04-18T17:04:03.033Z,2.10
2023-04-18T17:06:25.840Z,2.20
2023-04-18T17:08:49.199Z,2.33
2023-04-18T17:11:12.260Z,2.10
2023-04-18T17:13:36.097Z,2.13
2023-04-18T17:15:58.820Z,2.63
2023-04-18T17:18:22.244Z,1.92
2023-04-18T17:20:45.097Z,2.60
2023-04-18T17:23:07.965Z,2.35
2023-04-18T17:25:30.906Z,2.42
2023-04-18T17:27:54.037Z,2.33
2023-04-18T17:30:16.692Z,2.08
2023-04-18T17:32:45.651Z,2.33
2023-04-18T17:35:09.500Z,2.47
2023-04-18T17:37:32.202Z,2.53
2023-04-18T17:39:57.803Z,2.40
2023-04-18T17:42:21.613Z,2.40
2023-04-18T17:44:45.217Z,2.60
2023-04-18T17:47:08.202Z,2.38
2023-04-18T17:49:34.960Z,2.35
2023-04-18T17:51:58.099Z,2.40
2023-04-18T17:54:21.401Z,2.28
2023-04-18T17:56:45.557Z,2.38
2023-04-18T17:59:09.885Z,2.50
2023-04-18T18:01:34.762Z,2.35
2023-04-18T18:03:58.062Z,2.43
2023-04-18T18:06:21.475Z,2.63
2023-04-18T18:08:44.556Z,3.08
2023-04-18T18:11:07.640Z,2.70
2023-04-18T18:13:30.651Z,3.60
2023-04-18T18:15:53.773Z,3.40
2023-04-18T18:18:23.629Z,3.15
2023-04-18T18:20:47.103Z,3.47
2023-04-18T18:23:10.346Z,2.90
2023-04-18T18:25:36.419Z,3.03
2023-04-18T18:27:58.998Z,3.20
2023-04-18T18:30:22.284Z,3.60
2023-04-18T18:32:44.982Z,3.75
2023-04-18T18:35:09.882Z,3.00
2023-04-18T18:37:33.109Z,3.20
2023-04-18T18:39:56.524Z,3.13
2023-04-18T18:42:19.564Z,3.10
2023-04-18T18:44:42.476Z,3.08
2023-04-18T18:47:05.920Z,3.20
2023-04-18T18:49:28.985Z,3.90
2023-04-18T18:51:51.955Z,3.93
2023-04-18T18:54:15.088Z,3.83
2023-04-18T18:56:39.807Z,3.70
2023-04-18T18:59:02.701Z,4.00
2023-04-18T19:01:25.929Z,4.18
2023-04-18T19:03:49.110Z,3.83
2023-04-18T19:06:13.205Z,4.32
2023-04-18T19:08:36.190Z,3.83
2023-04-18T19:10:59.111Z,3.60
2023-04-18T19:13:25.636Z,4.32
2023-04-18T19:15:48.749Z,4.07
2023-04-18T19:18:18.157Z,4.35
2023-04-18T19:20:41.838Z,3.67
2023-04-18T19:23:04.864Z,3.53
2023-04-18T19:25:28.233Z,3.80
2023-04-18T19:27:51.370Z,3.70
2023-04-18T19:30:14.337Z,3.97
2023-04-18T19:32:37.878Z,4.55
2023-04-18T19:35:01.455Z,4.45
2023-04-18T19:37:25.048Z,4.97
2023-04-18T19:39:48.101Z,4.90
2023-04-18T19:42:11.669Z,5.18
2023-04-18T19:44:34.929Z,6.03
2023-04-18T19:46:57.545Z,5.43
2023-04-18T19:49:22.533Z,5.90
2023-04-18T19:51:45.503Z,5.00
2023-04-18T19:54:08.489Z,5.18
2023-04-18T19:56:31.764Z,5.30
2023-04-18T19:58:58.230Z,5.50
2023-04-18T20:01:21.599Z,5.10
2023-04-18T20:03:44.940Z,4.90
2023-04-18T20:06:08.524Z,4.60
2023-04-18T20:08:32.479Z,4.65
2023-04-18T20:10:56.316Z,4.15
2023-04-18T20:13:19.083Z,4.30
2023-04-18T20:15:42.274Z,4.00
2023-04-18T20:18:05.492Z,3.90
2023-04-18T20:20:28.411Z,4.15
2023-04-18T20:22:51.284Z,3.58
2023-04-18T20:25:14.317Z,3.50
2023-04-18T20:27:37.089Z,3.63
2023-04-18T20:30:00.302Z,3.38
2023-04-18T20:32:24.352Z,3.03
2023-04-18T20:34:47.014Z,3.30
2023-04-18T20:37:10.140Z,3.08
2023-04-18T20:39:33.865Z,2.80
2023-04-18T20:41:57.896Z,2.78
2023-04-18T20:44:21.806Z,2.92
2023-04-18T20:46:45.137Z,2.60
2023-04-18T20:49:08.878Z,3.22
2023-04-18T20:51:32.042Z,2.80
2023-04-18T20:53:54.770Z,2.75
2023-04-18T20:56:17.328Z,2.92
2023-04-18T20:58:40.635Z,3.33
2023-04-18T21:01:03.612Z,3.08
2023-04-18T21:03:26.706Z,3.17
2023-04-18T21:05:49.579Z,2.95
2023-04-18T21:08:12.723Z,3.20
2023-04-18T21:10:35.737Z,3.13
2023-04-18T21:12:58.370Z,2.83
2023-04-18T21:15:21.066Z,2.90
2023-04-18T21:17:43.800Z,3.00
2023-04-18T21:20:08.134Z,3.03
2023-04-18T21:22:30.896Z,2.65
2023-04-18T21:24:53.420Z,2.60
2023-04-18T21:27:16.360Z,2.70
2023-04-18T21:29:39.201Z,2.47
2023-04-18T21:32:02.061Z,2.40
2023-04-18T21:34:26.248Z,2.50
2023-04-18T21:36:49.084Z,2.40
2023-04-18T21:39:11.681Z,2.50
2023-04-18T21:41:34.531Z,2.63
2023-04-18T21:43:57.218Z,3.13
2023-04-18T21:46:20.326Z,2.65
2023-04-18T21:48:44.909Z,2.90
2023-04-18T21:51:09.304Z,2.80
2023-04-18T21:53:31.921Z,2.60
2023-04-18T21:55:54.494Z,2.22
2023-04-18T21:58:17.267Z,2.55
2023-04-18T22:00:39.945Z,2.72
2023-04-18T22:03:02.619Z,2.57
2023-04-18T22:05:26.378Z,2.67
2023-04-18T22:07:57.313Z,2.65
2023-04-18T22:10:21.406Z,2.75
2023-04-18T22:12:44.457Z,2.65
2023-04-18T22:15:07.548Z,3.10
2023-04-18T22:17:31.541Z,2.78
2023-04-18T22:19:54.855Z,2.78
2023-04-18T22:22:17.561Z,2.70
2023-04-18T22:24:40.296Z,3.03
2023-04-18T22:27:02.920Z,2.90
2023-04-18T22:29:25.547Z,2.95
2023-04-18T22:31:48.299Z,3.05
2023-04-18T22:34:10.923Z,2.65
2023-04-18T22:36:33.513Z,2.88
2023-04-18T22:38:56.069Z,3.83
2023-04-18T22:41:18.787Z,3.50
2023-04-18T22:43:41.469Z,4.18
2023-04-18T22:46:04.176Z,3.55
2023-04-18T22:48:26.802Z,4.10
2023-04-18T22:50:50.093Z,3.80
2023-04-18T22:53:14.365Z,4.10
2023-04-18T22:55:44.354Z,4.18
2023-04-18T22:58:08.050Z,4.38
2023-04-18T23:00:30.674Z,4.15
2023-04-18T23:02:53.600Z,4.33
2023-04-18T23:05:16.819Z,4.70
2023-04-18T23:07:39.498Z,4.57
2023-04-18T23:10:05.548Z,4.65
2023-04-18T23:12:28.553Z,4.55
2023-04-18T23:14:51.185Z,4.47
2023-04-18T23:17:13.793Z,4.28
2023-04-18T23:19:36.633Z,4.20
2023-04-18T23:21:59.702Z,4.15
2023-04-18T23:24:23.099Z,4.07
2023-04-18T23:26:45.630Z,4.40
2023-04-18T23:29:08.301Z,4.38
2023-04-18T23:31:32.987Z,4.20
2023-04-18T23:33:56.497Z,4.07
2023-04-18T23:36:19.136Z,4.30
2023-04-18T23:38:42.518Z,4.27
2023-04-18T23:41:05.566Z,4.53
2023-04-18T23:43:28.238Z,4.10
2023-04-18T23:45:50.911Z,4.18
2023-04-18T23:48:13.593Z,4.50
2023-04-18T23:50:57.241Z,4.10
2023-04-18T23:53:21.762Z,4.20
2023-04-18T23:55:44.463Z,4.10
2023-04-18T23:58:07.391Z,3.90
